createdAt,value
2022-08-26T00:02:29.665Z,16.40
2022-08-26T00:05:31.698Z,16.32
2022-08-26T00:08:33.925Z,16.22
2022-08-26T00:11:35.811Z,16.11
2022-08-26T00:14:37.669Z,15.95
2022-08-26T00:17:40.311Z,15.83
2022-08-26T00:20:42.497Z,15.72
2022-08-26T00:23:45.717Z,15.65
2022-08-26T00:26:48.128Z,15.49
2022-08-26T00:29:50.009Z,15.30
2022-08-26T00:32:52.966Z,15.24
2022-08-26T00:35:55.379Z,15.32
2022-08-26T00:38:58.537Z,15.34
2022-08-26T00:42:00.610Z,15.28
2022-08-26T00:45:02.413Z,15.30
2022-08-26T00:48:12.970Z,15.34
2022-08-26T00:51:18.830Z,15.38
2022-08-26T00:54:24.089Z,15.45
2022-08-26T00:57:29.806Z,15.50
2022-08-26T01:00:32.202Z,15.53
2022-08-26T01:03:34.872Z,15.47
2022-08-26T01:06:37.025Z,15.39
2022-08-26T01:09:39.740Z,15.41
2022-08-26T01:12:55.612Z,15.46
2022-08-26T01:16:01.405Z,15.51
2022-08-26T01:19:16.298Z,15.53
2022-08-26T01:22:28.800Z,15.48
2022-08-26T01:25:33.557Z,15.41
2022-08-26T01:28:37.149Z,15.42
2022-08-26T01:31:46.575Z,15.37
2022-08-26T01:34:48.565Z,15.23
2022-08-26T01:37:54.193Z,15.10
2022-08-26T01:40:56.312Z,15.02
2022-08-26T01:43:59.788Z,14.89
2022-08-26T01:47:02.271Z,14.71
2022-08-26T01:50:11.493Z,14.59
2022-08-26T01:53:15.444Z,14.49
2022-08-26T01:56:17.368Z,14.42
2022-08-26T01:59:20.860Z,14.38
2022-08-26T02:02:24.542Z,14.35
2022-08-26T02:05:26.393Z,14.32
2022-08-26T02:08:39.793Z,14.29
2022-08-26T02:11:41.583Z,14.19
2022-08-26T02:14:51.247Z,14.17
2022-08-26T02:17:53.269Z,14.17
2022-08-26T02:20:56.316Z,14.18
2022-08-26T02:24:08.642Z,14.21
2022-08-26T02:27:10.654Z,14.24
2022-08-26T02:30:22.052Z,14.27
2022-08-26T02:33:23.830Z,14.30
2022-08-26T02:36:28.526Z,14.30
2022-08-26T02:39:32.668Z,14.30
2022-08-26T02:42:34.644Z,14.27
2022-08-26T02:45:37.237Z,14.23
2022-08-26T02:48:39.225Z,14.21
2022-08-26T02:51:41.053Z,14.21
2022-08-26T02:54:45.472Z,14.20
2022-08-26T02:57:47.417Z,14.19
2022-08-26T03:00:49.302Z,14.13
2022-08-26T03:03:56.100Z,14.11
2022-08-26T03:06:58.499Z,14.06
2022-08-26T03:10:00.967Z,14.01
2022-08-26T03:13:05.093Z,13.96
2022-08-26T03:16:07.830Z,13.89
2022-08-26T03:19:10.168Z,13.82
2022-08-26T03:22:12.263Z,13.81
2022-08-26T03:25:17.019Z,13.81
2022-08-26T03:28:19.384Z,13.77
2022-08-26T03:31:24.476Z,13.77
2022-08-26T03:34:26.652Z,13.77
2022-08-26T03:37:29.635Z,13.80
2022-08-26T03:40:33.906Z,13.77
2022-08-26T03:43:35.841Z,13.75
2022-08-26T03:46:38.592Z,13.65
2022-08-26T03:49:40.825Z,13.58
2022-08-26T03:52:44.041Z,13.48
2022-08-26T03:55:46.090Z,13.49
2022-08-26T03:58:48.329Z,13.51
2022-08-26T04:01:52.760Z,13.51
2022-08-26T04:04:54.623Z,13.45
2022-08-26T04:07:56.402Z,13.33
2022-08-26T04:10:58.212Z,13.25
2022-08-26T04:14:00.909Z,13.25
2022-08-26T04:17:05.068Z,13.23
2022-08-26T04:20:08.546Z,13.21
2022-08-26T04:23:11.533Z,13.19
2022-08-26T04:26:13.258Z,13.14
2022-08-26T04:29:26.221Z,13.19
2022-08-26T04:32:28.705Z,13.18
2022-08-26T04:35:35.236Z,13.16
2022-08-26T04:38:37.187Z,13.18
2022-08-26T04:41:39.764Z,13.22
2022-08-26T04:44:41.939Z,13.33
2022-08-26T04:47:43.889Z,13.49
2022-08-26T04:50:49.436Z,13.65
2022-08-26T04:53:51.527Z,13.80
2022-08-26T04:56:54.304Z,13.97
2022-08-26T04:59:56.152Z,14.13
2022-08-26T05:02:58.028Z,14.26
2022-08-26T05:06:04.904Z,14.37
2022-08-26T05:09:06.961Z,14.53
2022-08-26T05:12:09.768Z,14.72
2022-08-26T05:15:11.683Z,15.13
2022-08-26T05:18:15.299Z,15.72
2022-08-26T05:21:23.294Z,16.29
2022-08-26T05:24:24.994Z,16.82
2022-08-26T05:27:26.936Z,17.32
2022-08-26T05:30:31.560Z,17.76
2022-08-26T05:33:33.267Z,18.21
2022-08-26T05:36:36.300Z,18.49
2022-08-26T05:39:41.184Z,18.74
2022-08-26T05:42:43.083Z,18.95
2022-08-26T05:45:49.246Z,19.23
2022-08-26T05:48:51.765Z,19.54
2022-08-26T05:51:54.081Z,20.03
2022-08-26T05:54:56.448Z,20.53
2022-08-26T05:57:58.707Z,20.94
2022-08-26T06:01:10.572Z,21.14
2022-08-26T06:04:13.395Z,21.58
2022-08-26T06:07:16.958Z,21.91
2022-08-26T06:10:31.986Z,22.14
2022-08-26T06:13:35.590Z,22.38
2022-08-26T06:16:40.856Z,22.42
2022-08-26T06:19:42.892Z,22.27
2022-08-26T06:23:10.689Z,21.94
2022-08-26T06:26:13.646Z,22.08
2022-08-26T06:29:15.630Z,22.16
2022-08-26T06:32:27.338Z,21.94
2022-08-26T06:35:29.109Z,21.68
2022-08-26T06:38:31.049Z,21.94
2022-08-26T06:41:34.488Z,22.48
2022-08-26T06:44:36.539Z,23.01
2022-08-26T06:47:38.412Z,22.99
2022-08-26T06:50:40.961Z,23.11
2022-08-26T06:53:46.898Z,23.53
2022-08-26T06:56:48.579Z,24.05
2022-08-26T06:59:51.454Z,24.40
2022-08-26T07:02:53.851Z,24.42
2022-08-26T07:06:02.349Z,24.66
2022-08-26T07:09:06.851Z,24.88
2022-08-26T07:12:11.674Z,25.02
2022-08-26T07:15:13.461Z,25.49
2022-08-26T07:18:17.309Z,25.84
2022-08-26T07:21:20.346Z,26.11
2022-08-26T07:24:23.885Z,26.47
2022-08-26T07:27:30.330Z,26.78
2022-08-26T07:30:32.896Z,27.05
2022-08-26T07:33:36.033Z,27.28
2022-08-26T07:36:38.281Z,27.42
2022-08-26T07:39:41.751Z,27.62
2022-08-26T07:42:45.446Z,27.95
2022-08-26T07:45:47.300Z,28.33
2022-08-26T07:48:50.572Z,28.39
2022-08-26T07:51:54.201Z,28.73
2022-08-26T07:54:58.258Z,29.05
2022-08-26T07:58:00.748Z,29.34
2022-08-26T08:01:03.265Z,29.48
2022-08-26T08:04:07.335Z,29.24
2022-08-26T08:07:12.058Z,29.01
2022-08-26T08:10:21.106Z,29.48
2022-08-26T08:13:24.134Z,29.93
2022-08-26T08:16:26.295Z,30.05
2022-08-26T08:19:29.934Z,30.14
2022-08-26T08:22:38.856Z,30.47
2022-08-26T08:25:42.608Z,30.50
2022-08-26T08:28:44.828Z,30.51
2022-08-26T08:31:56.916Z,30.87
2022-08-26T08:35:00.285Z,31.27
2022-08-26T08:38:04.254Z,31.63
2022-08-26T08:41:37.393Z,31.92
2022-08-26T08:44:42.231Z,32.11
2022-08-26T08:47:54.106Z,31.71
2022-08-26T08:51:05.987Z,31.53
2022-08-26T08:54:08.358Z,31.29
2022-08-26T08:57:33.064Z,31.45
2022-08-26T09:00:44.407Z,31.65
2022-08-26T09:04:33.067Z,31.53
2022-08-26T09:07:47.157Z,31.69
2022-08-26T09:10:56.087Z,32.20
2022-08-26T09:14:00.419Z,32.55
2022-08-26T09:17:10.392Z,32.31
2022-08-26T09:20:50.009Z,32.10
2022-08-26T09:23:55.554Z,31.96
2022-08-26T09:26:59.304Z,31.80
2022-08-26T09:30:01.546Z,32.12
2022-08-26T09:33:10.889Z,32.19
2022-08-26T09:36:22.737Z,32.35
2022-08-26T09:39:37.877Z,32.39
2022-08-26T09:42:39.927Z,31.97
2022-08-26T09:45:50.217Z,32.34
2022-08-26T09:48:53.269Z,33.08
2022-08-26T09:52:07.306Z,33.29
2022-08-26T09:55:21.104Z,33.74
2022-08-26T09:58:35.181Z,34.13
2022-08-26T10:01:43.891Z,34.44
2022-08-26T10:04:51.978Z,34.25
2022-08-26T10:07:54.817Z,34.04
2022-08-26T10:11:00.123Z,33.51
2022-08-26T10:14:08.231Z,33.33
2022-08-26T10:17:27.994Z,33.45
2022-08-26T10:20:36.927Z,33.65
2022-08-26T10:23:43.251Z,34.05
2022-08-26T10:27:18.034Z,34.26
2022-08-26T10:30:22.788Z,33.90
2022-08-26T10:33:25.475Z,33.75
2022-08-26T10:37:13.442Z,33.46
2022-08-26T10:40:16.579Z,33.70
2022-08-26T10:43:23.740Z,33.76
2022-08-26T10:46:34.611Z,33.69
2022-08-26T10:49:39.930Z,33.68
2022-08-26T10:53:01.835Z,33.71
2022-08-26T10:56:28.594Z,33.77
2022-08-26T10:59:58.248Z,33.94
2022-08-26T11:03:04.632Z,33.89
2022-08-26T11:06:27.061Z,33.50
2022-08-26T11:09:46.970Z,33.22
2022-08-26T11:13:00.540Z,33.76
2022-08-26T11:16:02.640Z,33.45
2022-08-26T11:19:09.495Z,33.17
2022-08-26T11:22:28.926Z,33.61
2022-08-26T11:25:31.159Z,33.77
2022-08-26T11:28:49.540Z,33.94
2022-08-26T11:31:54.722Z,34.09
2022-08-26T11:34:59.264Z,34.06
2022-08-26T11:38:18.089Z,33.78
2022-08-26T11:41:22.515Z,33.59
2022-08-26T11:44:27.267Z,33.51
2022-08-26T11:47:31.010Z,33.67
2022-08-26T11:50:33.277Z,33.66
2022-08-26T11:53:38.726Z,33.57
2022-08-26T11:56:42.199Z,33.54
2022-08-26T11:59:44.054Z,33.35
2022-08-26T12:02:45.742Z,33.20
2022-08-26T12:05:49.372Z,33.27
2022-08-26T12:08:52.505Z,33.36
2022-08-26T12:12:14.853Z,33.22
2022-08-26T12:15:20.100Z,33.03
2022-08-26T12:18:34.181Z,32.83
2022-08-26T12:21:37.445Z,32.87
2022-08-26T12:24:46.067Z,32.70
2022-08-26T12:27:50.608Z,32.45
2022-08-26T12:31:00.969Z,32.26
2022-08-26T12:34:06.152Z,32.05
2022-08-26T12:37:19.466Z,31.93
2022-08-26T12:40:41.122Z,32.06
2022-08-26T12:43:45.115Z,32.26
2022-08-26T12:46:49.831Z,32.39
2022-08-26T12:50:06.268Z,32.28
2022-08-26T12:53:11.153Z,32.48
2022-08-26T12:56:35.293Z,32.67
2022-08-26T12:59:37.143Z,32.87
2022-08-26T13:02:40.343Z,33.11
2022-08-26T13:05:42.253Z,33.24
2022-08-26T13:08:49.354Z,33.23
2022-08-26T13:11:53.302Z,33.25
2022-08-26T13:14:55.971Z,33.41
2022-08-26T13:17:58.241Z,33.51
2022-08-26T13:21:00.538Z,33.68
2022-08-26T13:24:08.734Z,33.85
2022-08-26T13:27:13.333Z,33.95
2022-08-26T13:30:15.608Z,33.84
2022-08-26T13:33:18.766Z,33.95
2022-08-26T13:36:22.222Z,34.22
2022-08-26T13:39:25.510Z,34.24
2022-08-26T13:42:27.466Z,34.08
2022-08-26T13:45:29.294Z,33.76
2022-08-26T13:48:32.007Z,33.60
2022-08-26T13:51:34.390Z,33.58
2022-08-26T13:54:36.438Z,33.53
2022-08-26T13:57:38.813Z,33.72
2022-08-26T14:00:41.456Z,33.86
2022-08-26T14:03:43.989Z,33.72
2022-08-26T14:06:45.811Z,33.47
2022-08-26T14:09:49.987Z,33.25
2022-08-26T14:12:52.008Z,33.09
2022-08-26T14:15:54.318Z,32.87
2022-08-26T14:18:56.322Z,32.71
2022-08-26T14:22:01.012Z,32.40
2022-08-26T14:25:03.066Z,32.15
2022-08-26T14:28:04.903Z,31.97
2022-08-26T14:31:07.126Z,31.97
2022-08-26T14:34:13.241Z,32.26
2022-08-26T14:37:15.541Z,32.45
2022-08-26T14:40:19.463Z,32.47
2022-08-26T14:43:21.965Z,32.59
2022-08-26T14:46:28.352Z,32.51
2022-08-26T14:49:31.849Z,32.40
2022-08-26T14:52:54.165Z,32.63
2022-08-26T14:55:56.042Z,33.00
2022-08-26T14:58:57.795Z,32.85
2022-08-26T15:02:00.982Z,32.74
2022-08-26T15:05:04.370Z,32.63
2022-08-26T15:08:10.852Z,32.98
2022-08-26T15:11:13.105Z,33.27
2022-08-26T15:14:19.675Z,33.47
2022-08-26T15:17:22.114Z,33.71
2022-08-26T15:20:24.370Z,33.84
2022-08-26T15:23:27.168Z,34.12
2022-08-26T15:26:31.145Z,34.18
2022-08-26T15:29:36.296Z,33.98
2022-08-26T15:32:38.606Z,33.58
2022-08-26T15:35:40.447Z,33.04
2022-08-26T15:38:45.207Z,32.67
2022-08-26T15:41:47.159Z,32.36
2022-08-26T15:44:50.031Z,32.02
2022-08-26T15:48:01.290Z,31.63
2022-08-26T15:51:21.265Z,31.36
2022-08-26T15:54:24.567Z,31.18
2022-08-26T15:57:26.491Z,31.01
2022-08-26T16:00:28.853Z,31.00
2022-08-26T16:03:30.711Z,30.98
2022-08-26T16:06:34.781Z,30.92
2022-08-26T16:09:36.806Z,30.79
2022-08-26T16:12:38.642Z,30.59
2022-08-26T16:15:41.216Z,30.37
2022-08-26T16:18:43.558Z,30.16
2022-08-26T16:21:45.445Z,30.07
2022-08-26T16:24:47.290Z,29.79
2022-08-26T16:27:49.240Z,29.50
2022-08-26T16:30:52.772Z,29.28
2022-08-26T16:33:54.483Z,29.10
2022-08-26T16:36:56.410Z,28.94
2022-08-26T16:39:58.524Z,28.78
2022-08-26T16:43:00.398Z,28.60
2022-08-26T16:46:02.298Z,28.46
2022-08-26T16:49:04.816Z,28.36
2022-08-26T16:52:07.954Z,28.20
2022-08-26T16:55:13.364Z,28.04
2022-08-26T16:58:15.531Z,27.85
2022-08-26T17:01:17.981Z,27.66
2022-08-26T17:04:19.971Z,27.48
2022-08-26T17:07:21.983Z,27.33
2022-08-26T17:10:25.060Z,27.27
2022-08-26T17:13:35.207Z,27.21
2022-08-26T17:16:38.266Z,27.05
2022-08-26T17:19:46.832Z,26.80
2022-08-26T17:22:50.882Z,26.52
2022-08-26T17:25:52.975Z,26.27
2022-08-26T17:28:54.858Z,26.09
2022-08-26T17:31:56.722Z,25.95
2022-08-26T17:34:59.094Z,25.80
2022-08-26T17:38:01.036Z,25.63
2022-08-26T17:41:03.092Z,25.49
2022-08-26T17:44:05.369Z,25.33
2022-08-26T17:47:07.275Z,25.13
2022-08-26T17:50:12.853Z,24.90
2022-08-26T17:53:19.139Z,24.68
2022-08-26T17:56:27.575Z,24.46
2022-08-26T17:59:30.467Z,24.24
2022-08-26T18:02:32.565Z,23.99
2022-08-26T18:05:34.656Z,23.78
2022-08-26T18:08:38.052Z,23.57
2022-08-26T18:11:40.300Z,23.30
2022-08-26T18:14:43.297Z,23.02
2022-08-26T18:17:45.325Z,22.80
2022-08-26T18:20:47.355Z,22.58
2022-08-26T18:23:54.962Z,22.34
2022-08-26T18:26:56.839Z,22.15
2022-08-26T18:29:58.666Z,21.99
2022-08-26T18:33:00.979Z,21.82
2022-08-26T18:36:02.981Z,21.63
2022-08-26T18:39:06.108Z,21.31
2022-08-26T18:42:08.555Z,21.04
2022-08-26T18:45:10.829Z,20.86
2022-08-26T18:48:18.034Z,20.70
2022-08-26T18:51:31.492Z,20.57
2022-08-26T18:54:33.328Z,20.44
2022-08-26T18:57:35.141Z,20.35
2022-08-26T19:00:36.970Z,20.27
2022-08-26T19:03:38.752Z,20.17
2022-08-26T19:06:41.413Z,20.09
2022-08-26T19:09:43.760Z,20.03
2022-08-26T19:12:46.785Z,19.96
2022-08-26T19:15:53.750Z,19.88
2022-08-26T19:18:58.503Z,19.81
2022-08-26T19:22:00.549Z,19.73
2022-08-26T19:25:02.599Z,19.66
2022-08-26T19:28:04.328Z,19.57
2022-08-26T19:31:10.674Z,19.49
2022-08-26T19:34:12.700Z,19.39
2022-08-26T19:37:15.050Z,19.34
2022-08-26T19:40:16.871Z,19.32
2022-08-26T19:43:20.957Z,19.32
2022-08-26T19:46:26.685Z,19.37
2022-08-26T19:49:28.591Z,19.40
2022-08-26T19:52:30.349Z,19.40
2022-08-26T19:55:32.299Z,19.19
2022-08-26T19:58:35.442Z,18.90
2022-08-26T20:01:37.320Z,18.61
2022-08-26T20:04:39.372Z,18.41
2022-08-26T20:07:41.320Z,18.17
2022-08-26T20:10:44.541Z,17.82
2022-08-26T20:13:47.281Z,17.44
2022-08-26T20:16:49.501Z,17.23
2022-08-26T20:20:13.301Z,17.22
2022-08-26T20:23:30.440Z,17.26
2022-08-26T20:26:34.966Z,17.32
2022-08-26T20:29:37.651Z,17.33
2022-08-26T20:32:40.395Z,17.32
2022-08-26T20:35:42.196Z,17.29
2022-08-26T20:38:44.586Z,17.30
2022-08-26T20:41:47.214Z,17.34
2022-08-26T20:44:54.768Z,17.37
2022-08-26T20:47:57.257Z,17.37
2022-08-26T20:51:00.245Z,17.35
2022-08-26T20:54:02.549Z,17.32
2022-08-26T20:57:04.663Z,17.31
2022-08-26T21:00:07.563Z,17.28
2022-08-26T21:03:09.458Z,17.23
2022-08-26T21:06:12.604Z,17.17
2022-08-26T21:09:15.371Z,17.06
2022-08-26T21:12:18.367Z,16.86
2022-08-26T21:15:20.507Z,16.75
2022-08-26T21:18:22.304Z,16.66
2022-08-26T21:21:27.567Z,16.51
2022-08-26T21:24:29.549Z,16.45
2022-08-26T21:27:31.711Z,16.39
2022-08-26T21:30:37.934Z,16.38
2022-08-26T21:33:40.497Z,16.45
2022-08-26T21:36:42.742Z,16.44
2022-08-26T21:39:44.659Z,16.37
2022-08-26T21:42:46.493Z,16.25
2022-08-26T21:45:50.226Z,16.19
2022-08-26T21:48:58.286Z,16.06
2022-08-26T21:52:01.872Z,15.88
2022-08-26T21:55:05.096Z,15.80
2022-08-26T21:58:11.766Z,15.81
2022-08-26T22:01:20.832Z,15.80
2022-08-26T22:04:22.919Z,15.78
2022-08-26T22:07:24.663Z,15.75
2022-08-26T22:10:26.526Z,15.73
2022-08-26T22:13:31.102Z,15.65
2022-08-26T22:16:32.980Z,15.46
2022-08-26T22:19:36.104Z,15.25
2022-08-26T22:22:51.714Z,15.18
2022-08-26T22:25:54.500Z,15.20
2022-08-26T22:28:58.703Z,15.26
2022-08-26T22:32:01.878Z,15.33
2022-08-26T22:35:11.381Z,15.37
2022-08-26T22:38:26.214Z,15.41
2022-08-26T22:41:28.090Z,15.42
2022-08-26T22:44:31.654Z,15.41
2022-08-26T22:47:34.923Z,15.41
2022-08-26T22:50:39.028Z,15.40
2022-08-26T22:53:41.479Z,15.39
2022-08-26T22:56:45.540Z,15.40
2022-08-26T22:59:47.400Z,15.39
2022-08-26T23:02:49.222Z,15.38
2022-08-26T23:06:11.103Z,15.33
2022-08-26T23:09:28.107Z,15.24
2022-08-26T23:12:30.110Z,15.15
2022-08-26T23:15:32.006Z,15.08
2022-08-26T23:18:33.921Z,15.08
2022-08-26T23:21:35.840Z,15.01
2022-08-26T23:24:37.754Z,14.92
2022-08-26T23:27:41.886Z,14.87
2022-08-26T23:30:43.911Z,14.83
2022-08-26T23:34:04.594Z,14.82
2022-08-26T23:37:07.863Z,14.81
2022-08-26T23:40:15.974Z,14.85
2022-08-26T23:43:18.411Z,14.91
2022-08-26T23:46:20.737Z,14.97
2022-08-26T23:49:23.039Z,15.03
2022-08-26T23:52:43.589Z,15.08
2022-08-26T23:55:48.495Z,15.10
2022-08-26T23:58:50.337Z,15.11
